Time;durP1;ratioP1;P1;durP2;ratioP2;P2;SDS_P1;SDS_P2;PMS_P1;PMS_P2;Temp;Humidity;BMP_temperature;BMP_pressure;BME280_temperature;BME280_humidity;BME280_pressure;Samples;Min_cycle;Max_cycle;Signal;HPM_P1;HPM_P2
2023/03/18 00:01:33;;;;;;;10.75;8.20;;;9.80;99.90;;;;;;5046179;28;20052;-63
2023/03/18 00:04:00;;;;;;;11.88;7.72;;;9.80;99.60;;;;;;5042484;28;20503;-63
2023/03/18 00:06:26;;;;;;;15.05;7.78;;;9.80;99.50;;;;;;5047017;28;20041;-63
2023/03/18 00:08:51;;;;;;;13.70;8.35;;;9.90;99.60;;;;;;5043335;28;20041;-63
2023/03/18 00:11:20;;;;;;;14.35;8.00;;;9.90;99.40;;;;;;5064061;28;20048;-63
2023/03/18 00:13:47;;;;;;;13.98;8.07;;;9.90;99.40;;;;;;5048088;28;20423;-63
2023/03/18 00:16:14;;;;;;;13.55;8.13;;;9.90;99.20;;;;;;5062832;28;20033;-63
2023/03/18 00:18:41;;;;;;;15.98;8.10;;;9.90;99.00;;;;;;5048799;28;20049;-63
2023/03/18 00:21:08;;;;;;;16.30;7.75;;;10.00;98.90;;;;;;5045919;28;20095;-63
2023/03/18 00:23:34;;;;;;;18.25;7.97;;;10.00;98.60;;;;;;5048626;28;20410;-63
2023/03/18 00:26:01;;;;;;;12.30;7.53;;;10.00;98.50;;;;;;5047098;28;20150;-63
2023/03/18 00:28:27;;;;;;;14.82;8.07;;;10.00;98.50;;;;;;5047372;28;20041;-63
2023/03/18 00:30:54;;;;;;;12.68;7.60;;;10.10;98.70;;;;;;5047457;28;20076;-63
2023/03/18 00:33:20;;;;;;;12.35;7.45;;;10.10;98.80;;;;;;5047212;28;20047;-63
2023/03/18 00:35:46;;;;;;;11.02;7.07;;;10.10;99.30;;;;;;5048007;28;20048;-63
2023/03/18 00:38:19;;;;;;;11.82;7.45;;;10.10;99.50;;;;;;5047041;28;20037;-63
2023/03/18 00:41:00;;;;;;;13.95;6.60;;;10.10;99.60;;;;;;5047833;28;20399;-63
2023/03/18 00:43:28;;;;;;;;;;;10.10;99.70;;;;;;5047305;28;20501;-63
2023/03/18 00:45:55;;;;;;;13.70;6.85;;;10.10;99.80;;;;;;5046168;28;20252;-63
2023/03/18 00:48:22;;;;;;;11.13;7.00;;;10.10;99.90;;;;;;5047826;28;20045;-63
2023/03/18 00:50:49;;;;;;;15.75;6.63;;;10.10;99.90;;;;;;5045853;28;20043;-63
2023/03/18 00:53:15;;;;;;;18.10;7.80;;;10.10;99.90;;;;;;5030114;28;20048;-63
2023/03/18 00:55:41;;;;;;;15.65;6.72;;;10.10;99.90;;;;;;5044914;28;20476;-63
2023/03/18 00:58:08;;;;;;;19.45;6.70;;;10.10;99.90;;;;;;5042060;28;20052;-63
2023/03/18 01:00:35;;;;;;;14.23;6.15;;;10.00;99.90;;;;;;5040052;28;20046;-63
2023/03/18 01:03:01;;;;;;;14.05;7.00;;;10.00;99.90;;;;;;5044830;28;20062;-63
2023/03/18 01:05:27;;;;;;;10.55;6.40;;;10.00;99.90;;;;;;5047597;28;20052;-63
2023/03/18 01:07:53;;;;;;;15.57;7.15;;;10.00;99.90;;;;;;5034892;28;20416;-63
2023/03/18 01:10:19;;;;;;;11.32;6.35;;;10.00;99.90;;;;;;5045659;28;20395;-63
2023/03/18 01:12:46;;;;;;;18.95;5.93;;;10.10;99.90;;;;;;5040609;28;20044;-63
2023/03/18 01:15:15;;;;;;;11.43;6.00;;;10.10;99.90;;;;;;5048217;28;20053;-63
2023/03/18 01:17:41;;;;;;;8.27;5.60;;;10.10;99.90;;;;;;5046087;28;20045;-63
2023/03/18 01:20:10;;;;;;;11.95;6.32;;;10.20;99.90;;;;;;5039524;28;20049;-63
2023/03/18 01:22:36;;;;;;;16.90;6.93;;;10.20;99.90;;;;;;5054787;28;20483;-63
2023/03/18 01:25:02;;;;;;;11.57;6.05;;;10.20;99.90;;;;;;5045043;28;20051;-63
2023/03/18 01:27:28;;;;;;;13.07;5.82;;;10.20;99.90;;;;;;5046849;28;20053;-63
2023/03/18 01:29:54;;;;;;;14.05;5.55;;;10.20;99.90;;;;;;5031875;28;20487;-63
2023/03/18 01:32:20;;;;;;;13.55;6.22;;;10.20;99.90;;;;;;5047221;28;20045;-63
2023/03/18 01:34:46;;;;;;;9.88;5.80;;;10.10;99.90;;;;;;5045588;28;20044;-63
2023/03/18 01:37:12;;;;;;;11.27;4.97;;;10.10;99.90;;;;;;5047993;28;20107;-63
2023/03/18 01:39:38;;;;;;;11.45;5.07;;;10.10;99.90;;;;;;5046396;28;20079;-63
2023/03/18 01:42:05;;;;;;;12.13;5.47;;;10.10;99.90;;;;;;5046383;28;20083;-63
2023/03/18 01:44:31;;;;;;;14.30;5.88;;;10.10;99.90;;;;;;5047082;28;20048;-63
2023/03/18 01:46:57;;;;;;;10.35;6.13;;;10.00;99.90;;;;;;5045994;28;20041;-63
2023/03/18 01:49:26;;;;;;;12.43;5.93;;;10.00;99.90;;;;;;5062681;28;20122;-63
2023/03/18 01:51:55;;;;;;;10.93;5.07;;;10.00;99.90;;;;;;5045470;28;20127;-63
2023/03/18 01:54:23;;;;;;;10.32;5.10;;;10.00;99.90;;;;;;5046579;28;20045;-63
2023/03/18 01:56:50;;;;;;;9.43;6.13;;;10.00;99.90;;;;;;5045399;28;20048;-63
2023/03/18 01:59:18;;;;;;;12.18;5.93;;;10.00;99.90;;;;;;5047190;28;20053;-63
2023/03/18 02:01:50;;;;;;;6.70;4.82;;;9.90;99.90;;;;;;5045958;28;20044;-63
2023/03/18 02:04:17;;;;;;;13.45;6.35;;;9.90;99.90;;;;;;5031693;28;20492;-63
2023/03/18 02:06:43;;;;;;;14.75;6.85;;;9.90;99.90;;;;;;5047179;28;20049;-63
2023/03/18 02:09:10;;;;;;;18.15;6.35;;;9.80;99.90;;;;;;5045280;28;20110;-63
2023/03/18 02:11:39;;;;;;;10.70;6.45;;;9.80;99.90;;;;;;5047334;28;20483;-63
2023/03/18 02:14:08;;;;;;;11.70;6.40;;;9.70;99.90;;;;;;5044011;28;20052;-63
2023/03/18 02:16:47;;;;;;;13.20;7.63;;;9.70;99.90;;;;;;5046664;28;20594;-63
2023/03/18 02:19:32;;;;;;;13.23;7.13;;;9.60;99.90;;;;;;5045464;28;20045;-63
2023/03/18 02:22:29;;;;;;;11.65;7.20;;;9.60;99.90;;;;;;5045524;28;20049;-63
2023/03/18 02:25:20;;;;;;;15.15;6.50;;;9.50;99.90;;;;;;5047374;28;20068;-63
2023/03/18 02:27:50;;;;;;;14.80;7.45;;;9.50;99.90;;;;;;5049996;28;20057;-63
2023/03/18 02:30:22;;;;;;;14.77;7.07;;;9.40;99.90;;;;;;5047553;28;20056;-63
2023/03/18 02:32:50;;;;;;;11.75;6.90;;;9.40;99.90;;;;;;5050576;28;20084;-63
2023/03/18 02:35:16;;;;;;;10.15;7.13;;;9.40;99.90;;;;;;5049524;28;20045;-63
2023/03/18 02:37:42;;;;;;;13.95;8.15;;;9.40;99.90;;;;;;5050742;28;20503;-63
2023/03/18 02:40:20;;;;;;;16.10;8.73;;;9.30;99.90;;;;;;5048220;28;20140;-63
2023/03/18 02:42:47;;;;;;;19.02;8.40;;;9.30;99.90;;;;;;5048236;28;20037;-63
2023/03/18 02:45:39;;;;;;;13.02;8.95;;;9.30;99.90;;;;;;5050430;28;20052;-63
2023/03/18 02:48:07;;;;;;;20.85;9.25;;;9.30;99.90;;;;;;5048479;28;20084;-63
2023/03/18 02:50:33;;;;;;;19.92;10.57;;;9.30;99.90;;;;;;5050495;28;20056;-63
2023/03/18 02:53:01;;;;;;;20.30;9.73;;;9.30;99.90;;;;;;5048650;28;20286;-63
2023/03/18 02:55:27;;;;;;;18.38;9.10;;;9.20;99.90;;;;;;5036188;28;20057;-63
2023/03/18 02:57:52;;;;;;;15.88;9.63;;;9.20;99.90;;;;;;5050033;28;20075;-63
2023/03/18 03:00:18;;;;;;;17.30;10.55;;;9.20;99.90;;;;;;5049059;28;20033;-63
2023/03/18 03:02:44;;;;;;;20.77;10.52;;;9.20;99.90;;;;;;5050357;28;20499;-63
2023/03/18 03:05:11;;;;;;;18.50;10.00;;;9.10;99.90;;;;;;5043476;28;20040;-63
2023/03/18 03:07:36;;;;;;;18.20;11.07;;;9.10;99.90;;;;;;5036881;28;20052;-62
2023/03/18 03:10:04;;;;;;;17.35;10.85;;;9.00;99.90;;;;;;5047920;28;20041;-63
2023/03/18 03:12:30;;;;;;;24.33;11.65;;;8.90;99.90;;;;;;5048894;28;20060;-63
2023/03/18 03:14:56;;;;;;;17.70;11.70;;;8.90;99.90;;;;;;5049209;28;20048;-63
2023/03/18 03:17:22;;;;;;;19.20;10.77;;;8.80;99.90;;;;;;5049046;28;20466;-63
2023/03/18 03:19:48;;;;;;;17.65;11.27;;;8.70;99.90;;;;;;5049939;28;20044;-63
2023/03/18 03:22:16;;;;;;;16.80;9.32;;;8.80;99.90;;;;;;5035832;28;20384;-63
2023/03/18 03:24:42;;;;;;;17.15;10.20;;;8.80;99.90;;;;;;5043290;28;20042;-63
2023/03/18 03:27:08;;;;;;;16.98;12.10;;;8.80;99.90;;;;;;5037984;28;20052;-63
2023/03/18 03:29:34;;;;;;;21.10;11.10;;;8.80;99.90;;;;;;5047883;28;20065;-63
2023/03/18 03:32:00;;;;;;;19.40;11.15;;;8.80;99.90;;;;;;5048457;28;20036;-63
2023/03/18 03:34:26;;;;;;;30.25;13.68;;;8.70;99.90;;;;;;5035120;28;20053;-63
2023/03/18 03:36:52;;;;;;;19.70;12.55;;;8.60;99.90;;;;;;5047185;28;20139;-63
2023/03/18 03:39:18;;;;;;;20.20;12.68;;;8.60;99.90;;;;;;5046585;28;20052;-63
2023/03/18 03:41:44;;;;;;;20.88;13.43;;;8.60;99.90;;;;;;5049589;28;20044;-63
2023/03/18 03:44:10;;;;;;;23.92;14.00;;;8.60;99.90;;;;;;5047622;28;20115;-63
2023/03/18 03:46:36;;;;;;;22.00;14.23;;;8.60;99.90;;;;;;5048069;28;20427;-63
2023/03/18 03:49:03;;;;;;;20.77;12.90;;;8.60;99.90;;;;;;5046298;28;20041;-63
2023/03/18 03:51:29;;;;;;;22.42;13.02;;;8.60;99.90;;;;;;5049039;28;20427;-63
2023/03/18 03:53:54;;;;;;;19.45;13.13;;;8.60;99.90;;;;;;5049167;28;20044;-63
2023/03/18 03:56:21;;;;;;;26.25;13.52;;;8.60;99.90;;;;;;5047304;28;20435;-63
2023/03/18 03:58:46;;;;;;;22.52;12.82;;;8.60;99.90;;;;;;5047826;28;20500;-63
2023/03/18 04:01:12;;;;;;;18.58;11.57;;;8.60;99.90;;;;;;5047458;28;20045;-63
2023/03/18 04:03:38;;;;;;;27.80;11.88;;;8.60;99.90;;;;;;5049115;28;20475;-63
2023/03/18 04:06:05;;;;;;;21.35;12.23;;;8.60;99.90;;;;;;5046852;28;20127;-63
2023/03/18 04:08:31;;;;;;;22.92;14.38;;;8.60;99.90;;;;;;5048890;28;20510;-63
2023/03/18 04:10:57;;;;;;;26.35;13.70;;;8.60;99.90;;;;;;5046704;28;20072;-63
2023/03/18 04:13:23;;;;;;;22.52;14.02;;;8.50;99.90;;;;;;5048041;28;20041;-63
2023/03/18 04:15:49;;;;;;;25.52;15.10;;;8.60;99.90;;;;;;5048493;28;20080;-63
2023/03/18 04:18:15;;;;;;;23.98;15.40;;;8.60;99.90;;;;;;5047301;28;20118;-63
2023/03/18 04:20:42;;;;;;;22.77;14.43;;;8.60;99.90;;;;;;5047432;28;20049;-63
2023/03/18 04:23:08;;;;;;;24.88;14.15;;;8.60;99.90;;;;;;5046927;28;20124;-63
2023/03/18 04:25:35;;;;;;;21.95;14.02;;;8.70;99.90;;;;;;5048902;28;20442;-63
2023/03/18 04:28:01;;;;;;;23.08;13.85;;;8.70;99.90;;;;;;5046870;28;20057;-63
2023/03/18 04:30:27;;;;;;;30.40;16.15;;;8.70;99.90;;;;;;5047782;28;20055;-63
2023/03/18 04:32:53;;;;;;;20.27;14.05;;;8.70;99.90;;;;;;5030362;28;20147;-63
2023/03/18 04:35:20;;;;;;;23.27;15.90;;;8.60;99.90;;;;;;5046709;28;20498;-63
2023/03/18 04:37:46;;;;;;;25.83;16.05;;;8.60;99.90;;;;;;5048363;28;20084;-63
2023/03/18 04:40:12;;;;;;;26.95;15.07;;;8.60;99.90;;;;;;5046757;28;20194;-63
2023/03/18 04:42:38;;;;;;;27.55;16.38;;;8.60;99.90;;;;;;5048337;28;20041;-63
2023/03/18 04:45:05;;;;;;;23.92;15.05;;;8.60;99.90;;;;;;5045827;28;20049;-63
2023/03/18 04:47:33;;;;;;;31.30;16.48;;;8.50;99.90;;;;;;5045269;28;20037;-63
2023/03/18 04:49:59;;;;;;;28.33;15.43;;;8.40;99.90;;;;;;5046344;28;20128;-63
2023/03/18 04:52:25;;;;;;;32.67;16.42;;;8.40;99.90;;;;;;5046830;28;20044;-63
2023/03/18 04:54:51;;;;;;;25.60;16.50;;;8.30;99.90;;;;;;5046748;28;20049;-63
2023/03/18 04:57:18;;;;;;;27.60;16.38;;;8.20;99.90;;;;;;5045960;28;20041;-63
2023/03/18 04:59:44;;;;;;;23.27;15.88;;;8.20;99.90;;;;;;5048246;28;20049;-63
2023/03/18 05:02:10;;;;;;;22.63;17.23;;;8.10;99.90;;;;;;5044768;28;20385;-63
2023/03/18 05:04:37;;;;;;;33.75;18.88;;;8.10;99.90;;;;;;5046812;28;20044;-63
2023/03/18 05:07:03;;;;;;;28.98;16.20;;;8.10;99.90;;;;;;5046898;28;20048;-63
2023/03/18 05:09:29;;;;;;;28.88;19.17;;;8.00;99.90;;;;;;5046066;28;20040;-63
2023/03/18 05:11:54;;;;;;;28.10;18.27;;;8.00;99.90;;;;;;5048106;28;20048;-63
2023/03/18 05:14:20;;;;;;;25.88;18.02;;;8.00;99.90;;;;;;5045929;28;20045;-63
2023/03/18 05:16:46;;;;;;;33.78;18.25;;;8.00;99.90;;;;;;5047686;28;20053;-63
2023/03/18 05:19:13;;;;;;;28.70;17.95;;;8.00;99.90;;;;;;5044046;28;20238;-63
2023/03/18 05:21:40;;;;;;;36.75;18.90;;;8.00;99.90;;;;;;5047788;28;20056;-63
2023/03/18 05:24:06;;;;;;;31.10;18.50;;;8.00;99.90;;;;;;5046232;28;20053;-63
2023/03/18 05:26:32;;;;;;;27.25;18.65;;;8.00;99.90;;;;;;5047068;28;20080;-63
2023/03/18 05:28:58;;;;;;;32.10;19.75;;;8.00;99.90;;;;;;5047286;28;20455;-63
2023/03/18 05:31:24;;;;;;;30.55;17.77;;;8.10;99.90;;;;;;5041620;28;20034;-63
2023/03/18 05:33:50;;;;;;;30.85;16.55;;;8.10;99.90;;;;;;5038188;28;20631;-63
2023/03/18 05:36:16;;;;;;;24.98;16.38;;;8.10;99.90;;;;;;5045528;28;20083;-62
2023/03/18 05:38:41;;;;;;;28.90;16.55;;;8.20;99.90;;;;;;5039416;28;20080;-63
2023/03/18 05:41:07;;;;;;;31.70;17.30;;;8.20;99.90;;;;;;5040546;28;20072;-63
2023/03/18 05:43:33;;;;;;;24.88;15.35;;;8.10;99.90;;;;;;5046810;28;20043;-63
2023/03/18 05:45:59;;;;;;;33.90;18.13;;;8.20;99.90;;;;;;5046923;28;20083;-63
2023/03/18 05:48:25;;;;;;;25.77;16.80;;;8.20;99.90;;;;;;5045740;28;20041;-63
2023/03/18 05:50:51;;;;;;;25.92;15.95;;;8.20;99.90;;;;;;5036533;28;20049;-63
2023/03/18 05:53:17;;;;;;;29.13;16.42;;;8.30;99.90;;;;;;5045437;28;20049;-63
2023/03/18 05:55:43;;;;;;;28.67;17.05;;;8.40;99.90;;;;;;5047055;28;20075;-63
2023/03/18 05:58:09;;;;;;;26.77;16.42;;;8.40;99.90;;;;;;5046239;28;20052;-63
2023/03/18 06:00:36;;;;;;;31.75;17.08;;;8.40;99.90;;;;;;5049494;28;20053;-63
2023/03/18 06:03:02;;;;;;;29.35;17.48;;;8.50;99.90;;;;;;5050295;28;20037;-63
2023/03/18 06:05:29;;;;;;;26.55;17.50;;;8.50;99.90;;;;;;5050495;28;20044;-63
2023/03/18 06:07:55;;;;;;;23.50;16.15;;;8.50;99.90;;;;;;5049517;28;20384;-63
2023/03/18 06:10:23;;;;;;;24.45;16.20;;;8.50;99.90;;;;;;5031255;28;20053;-63
2023/03/18 06:12:50;;;;;;;30.92;16.05;;;8.50;99.90;;;;;;5051388;28;20047;-63
2023/03/18 06:15:17;;;;;;;28.65;16.83;;;8.60;99.90;;;;;;5049697;28;20136;-63
2023/03/18 06:17:43;;;;;;;28.45;16.48;;;8.70;99.90;;;;;;5049189;28;20053;-63
2023/03/18 06:20:10;;;;;;;27.95;17.50;;;8.70;99.90;;;;;;5048379;28;20403;-63
2023/03/18 06:22:37;;;;;;;35.33;16.48;;;8.70;99.90;;;;;;5042246;28;20053;-63
2023/03/18 06:25:03;;;;;;;25.60;16.02;;;8.70;99.90;;;;;;5044922;28;20049;-63
2023/03/18 06:27:30;;;;;;;22.50;14.50;;;8.70;99.90;;;;;;5043081;28;20458;-63
2023/03/18 06:29:56;;;;;;;24.40;13.35;;;8.70;99.90;;;;;;5031801;28;20042;-63
2023/03/18 06:32:22;;;;;;;23.67;14.30;;;8.80;99.90;;;;;;5044997;28;20218;-63
2023/03/18 06:34:48;;;;;;;23.30;14.90;;;8.80;99.90;;;;;;5042786;28;20033;-63
2023/03/18 06:37:14;;;;;;;24.02;16.60;;;8.90;99.90;;;;;;5043952;28;20051;-63
2023/03/18 06:39:40;;;;;;;27.65;17.45;;;8.90;99.90;;;;;;5044217;28;20040;-63
2023/03/18 06:42:05;;;;;;;21.55;14.07;;;9.00;99.90;;;;;;5044319;28;20056;-63
2023/03/18 06:44:31;;;;;;;27.75;17.10;;;8.90;99.90;;;;;;5044908;28;20483;-63
2023/03/18 06:46:57;;;;;;;26.73;15.68;;;9.00;99.90;;;;;;5041503;28;20081;-63
2023/03/18 06:49:24;;;;;;;31.75;16.85;;;9.10;99.90;;;;;;5045582;28;20727;-63
2023/03/18 06:51:50;;;;;;;24.55;16.60;;;9.10;99.90;;;;;;5040824;28;20041;-63
2023/03/18 06:54:15;;;;;;;23.88;15.63;;;9.20;99.90;;;;;;5044902;28;20045;-63
2023/03/18 06:56:42;;;;;;;22.10;14.35;;;9.20;99.90;;;;;;5042099;28;20041;-63
2023/03/18 06:59:08;;;;;;;27.40;16.52;;;9.20;99.90;;;;;;5044214;28;20054;-63
2023/03/18 07:01:35;;;;;;;30.15;16.60;;;9.20;99.90;;;;;;5044623;28;20057;-63
2023/03/18 07:04:01;;;;;;;28.13;16.17;;;9.30;99.90;;;;;;5042840;28;20057;-63
2023/03/18 07:06:29;;;;;;;26.75;16.58;;;9.30;99.90;;;;;;5044237;28;20084;-63
2023/03/18 07:08:55;;;;;;;33.17;17.13;;;9.40;99.90;;;;;;5048157;28;20068;-63
2023/03/18 07:11:21;;;;;;;27.10;17.10;;;9.40;99.90;;;;;;5047923;28;20053;-63
2023/03/18 07:13:47;;;;;;;28.80;18.15;;;9.40;99.90;;;;;;5049358;28;20037;-63
2023/03/18 07:16:13;;;;;;;28.42;17.17;;;9.50;99.90;;;;;;5048834;28;20041;-63
2023/03/18 07:18:39;;;;;;;25.63;16.38;;;9.50;99.90;;;;;;5049239;28;20483;-63
2023/03/18 07:21:05;;;;;;;26.05;16.70;;;9.60;99.90;;;;;;5040988;28;20045;-63
2023/03/18 07:23:31;;;;;;;28.23;17.92;;;9.70;99.90;;;;;;5060438;28;20049;-63
2023/03/18 07:25:57;;;;;;;30.38;18.67;;;9.80;99.90;;;;;;5033847;28;20048;-63
2023/03/18 07:28:24;;;;;;;30.73;18.33;;;9.90;99.90;;;;;;5032107;28;20115;-63
2023/03/18 07:30:50;;;;;;;31.38;18.10;;;9.90;99.90;;;;;;5042443;28;20061;-63
2023/03/18 07:33:16;;;;;;;29.33;18.50;;;10.00;99.90;;;;;;5047249;28;20037;-63
2023/03/18 07:35:42;;;;;;;29.27;19.33;;;10.10;99.90;;;;;;5042860;28;20045;-63
2023/03/18 07:38:09;;;;;;;33.53;19.73;;;10.20;99.90;;;;;;5035007;28;20124;-63
2023/03/18 07:40:36;;;;;;;30.25;18.85;;;10.30;99.90;;;;;;5036271;28;20490;-63
2023/03/18 07:43:03;;;;;;;27.77;17.48;;;10.40;99.90;;;;;;5048374;28;20071;-63
2023/03/18 07:45:29;;;;;;;26.83;17.55;;;10.50;99.90;;;;;;5039375;28;20129;-63
2023/03/18 07:47:54;;;;;;;27.45;17.95;;;10.70;99.90;;;;;;5036398;28;20139;-63
2023/03/18 07:50:20;;;;;;;29.98;19.25;;;10.90;99.90;;;;;;5048019;28;20085;-64
2023/03/18 07:52:47;;;;;;;38.17;18.63;;;11.00;99.90;;;;;;5039666;28;20083;-63
2023/03/18 07:55:12;;;;;;;39.22;19.70;;;11.10;99.90;;;;;;5037475;28;20116;-63
2023/03/18 07:57:39;;;;;;;34.72;18.77;;;11.20;99.90;;;;;;5039449;28;20125;-63
2023/03/18 08:00:06;;;;;;;34.60;19.73;;;11.40;99.90;;;;;;5039750;28;20403;-63
2023/03/18 08:02:33;;;;;;;33.10;19.17;;;11.50;99.90;;;;;;5041255;28;20740;-63
2023/03/18 08:04:59;;;;;;;27.45;15.38;;;11.60;99.90;;;;;;5046253;28;20045;-63
2023/03/18 08:07:24;;;;;;;24.55;17.05;;;11.70;99.90;;;;;;5033126;28;20406;-64
2023/03/18 08:09:50;;;;;;;29.17;17.15;;;11.90;99.90;;;;;;5032103;28;20540;-63
2023/03/18 08:12:17;;;;;;;28.33;16.92;;;12.10;99.90;;;;;;5043909;28;20071;-63
2023/03/18 08:14:43;;;;;;;25.48;16.13;;;12.30;99.90;;;;;;5033703;28;20056;-64
2023/03/18 08:17:09;;;;;;;29.42;16.52;;;12.60;99.90;;;;;;5033643;28;20479;-63
2023/03/18 08:19:35;;;;;;;25.15;11.50;;;12.70;99.90;;;;;;5036311;28;20048;-63
2023/03/18 08:22:01;;;;;;;33.55;14.48;;;12.60;99.90;;;;;;5052816;28;20067;-63
2023/03/18 08:24:27;;;;;;;33.95;17.38;;;12.50;99.90;;;;;;5034357;28;20041;-63
2023/03/18 08:26:53;;;;;;;28.35;17.23;;;12.40;99.90;;;;;;5035119;28;20045;-63
2023/03/18 08:29:19;;;;;;;31.08;17.15;;;12.40;99.90;;;;;;5053981;28;20136;-63
2023/03/18 08:31:45;;;;;;;20.05;9.98;;;12.30;99.90;;;;;;5031325;28;20479;-63
2023/03/18 08:34:10;;;;;;;30.27;17.00;;;12.30;99.90;;;;;;5044627;28;20033;-63
2023/03/18 08:36:36;;;;;;;25.67;16.67;;;12.30;99.90;;;;;;5038781;28;20048;-63
2023/03/18 08:39:04;;;;;;;28.95;16.23;;;12.30;99.90;;;;;;5037828;28;20037;-63
2023/03/18 08:41:32;;;;;;;26.55;17.13;;;12.30;99.90;;;;;;5036180;28;20578;-63
2023/03/18 08:43:58;;;;;;;27.92;16.02;;;12.40;99.90;;;;;;5037812;28;20519;-63
2023/03/18 08:46:24;;;;;;;25.55;16.38;;;12.40;99.90;;;;;;5038908;28;20053;-63
2023/03/18 08:48:50;;;;;;;28.73;16.45;;;12.50;99.90;;;;;;5034042;28;20042;-64
2023/03/18 08:51:16;;;;;;;30.67;18.63;;;12.50;99.90;;;;;;5039976;28;20033;-63
2023/03/18 08:53:42;;;;;;;30.80;17.02;;;12.70;99.90;;;;;;5035364;28;20053;-64
2023/03/18 08:56:08;;;;;;;32.92;18.13;;;12.80;99.90;;;;;;5043519;28;20122;-63
2023/03/18 08:58:35;;;;;;;35.95;16.35;;;12.90;99.90;;;;;;5039632;28;20053;-63
2023/03/18 09:01:04;;;;;;;26.80;17.08;;;12.90;99.90;;;;;;5044693;28;20045;-63
2023/03/18 09:03:30;;;;;;;26.88;16.60;;;13.00;99.90;;;;;;5041921;28;20041;-64
2023/03/18 09:05:56;;;;;;;25.40;17.73;;;13.00;99.90;;;;;;5047815;28;20407;-64
2023/03/18 09:08:22;;;;;;;32.22;18.08;;;12.90;99.90;;;;;;5050953;28;20100;-64
2023/03/18 09:10:52;;;;;;;29.17;17.70;;;12.90;99.90;;;;;;5042392;28;20037;-63
2023/03/18 09:13:19;;;;;;;27.73;16.75;;;12.80;99.90;;;;;;5045347;28;20056;-64
2023/03/18 09:15:44;;;;;;;31.13;17.55;;;12.70;99.90;;;;;;5040584;28;20056;-63
2023/03/18 09:18:45;;;;;;;24.20;16.92;;;12.70;99.90;;;;;;5059888;28;20052;-64
2023/03/18 09:21:11;;;;;;;;;;;12.60;99.90;;;;;;5038039;28;20044;-63
2023/03/18 09:23:36;;;;;;;27.48;16.35;;;12.50;99.90;;;;;;5035776;28;19967;-63
2023/03/18 09:26:02;;;;;;;24.80;16.33;;;12.50;99.90;;;;;;5040133;28;20045;-63
2023/03/18 09:28:28;;;;;;;25.60;16.75;;;12.50;99.90;;;;;;5043690;28;20503;-64
2023/03/18 09:30:54;;;;;;;33.05;16.85;;;12.50;99.90;;;;;;5035437;28;20529;-63
2023/03/18 09:33:21;;;;;;;28.08;17.65;;;12.50;99.90;;;;;;5039183;28;20103;-63
2023/03/18 09:35:48;;;;;;;24.70;17.15;;;12.60;99.90;;;;;;5043564;28;20384;-63
2023/03/18 09:38:16;;;;;;;26.30;16.33;;;12.60;99.90;;;;;;5040858;28;20049;-63
2023/03/18 09:41:09;;;;;;;29.83;17.05;;;12.60;99.90;;;;;;5034611;28;20051;-63
2023/03/18 09:43:56;;;;;;;30.20;18.02;;;12.60;99.90;;;;;;4998773;28;20111;-63
2023/03/18 09:46:52;;;;;;;28.10;18.30;;;12.60;99.90;;;;;;5026306;28;20052;-63
2023/03/18 09:49:24;;;;;;;24.25;16.92;;;12.70;99.90;;;;;;5030099;28;20103;-63
2023/03/18 09:52:05;;;;;;;27.23;17.95;;;12.80;99.90;;;;;;5039936;28;20041;-63
2023/03/18 09:55:01;;;;;;;31.33;17.25;;;12.90;99.90;;;;;;5031331;28;20049;-64
2023/03/18 09:57:38;;;;;;;27.20;16.70;;;12.90;99.90;;;;;;5031387;28;20048;-64
2023/03/18 10:00:27;;;;;;;24.92;17.42;;;12.90;99.90;;;;;;5028194;28;20045;-64
2023/03/18 10:03:11;;;;;;;27.15;16.10;;;13.00;99.90;;;;;;5042281;28;20053;-64
2023/03/18 10:05:47;;;;;;;29.38;16.00;;;13.10;99.90;;;;;;5044823;28;20041;-63
2023/03/18 10:08:23;;;;;;;27.40;14.15;;;13.20;99.90;;;;;;5042728;28;20045;-64
2023/03/18 10:10:49;;;;;;;20.85;14.18;;;13.30;99.90;;;;;;5045150;28;20541;-64
2023/03/18 10:13:37;;;;;;;20.50;13.57;;;13.40;99.90;;;;;;5027309;28;20128;-64
2023/03/18 10:16:04;;;;;;;23.73;13.68;;;13.40;99.90;;;;;;5045913;28;20116;-64
2023/03/18 10:18:32;;;;;;;26.00;14.43;;;13.40;99.90;;;;;;5046975;28;20041;-63
2023/03/18 10:21:10;;;;;;;22.10;13.95;;;13.50;99.90;;;;;;5027273;28;20048;-64
2023/03/18 10:24:00;;;;;;;27.70;14.85;;;13.50;99.90;;;;;;5046965;28;20044;-64
2023/03/18 10:26:47;;;;;;;26.10;14.73;;;13.60;99.90;;;;;;5041883;28;20053;-64
2023/03/18 10:29:39;;;;;;;29.23;14.30;;;13.80;99.90;;;;;;5038611;28;20056;-64
2023/03/18 10:32:16;;;;;;;24.27;14.45;;;13.80;99.90;;;;;;5045626;28;20045;-64
2023/03/18 10:34:44;;;;;;;26.52;14.63;;;14.00;99.90;;;;;;5039592;28;20102;-64
2023/03/18 10:37:39;;;;;;;28.55;15.07;;;14.20;99.90;;;;;;5036789;28;20970;-64
2023/03/18 10:40:17;;;;;;;26.50;17.63;;;14.40;99.70;;;;;;5026424;28;20099;-64
2023/03/18 10:42:43;;;;;;;27.10;14.70;;;14.60;98.60;;;;;;5033321;28;20096;-64
2023/03/18 10:45:18;;;;;;;25.40;16.17;;;14.60;95.90;;;;;;5028466;28;20072;-64
2023/03/18 10:47:50;;;;;;;25.48;15.60;;;14.80;97.20;;;;;;5045438;28;20059;-64
2023/03/18 10:50:29;;;;;;;22.23;14.50;;;14.90;94.70;;;;;;5033511;28;20041;-64
2023/03/18 10:53:18;;;;;;;26.45;15.48;;;14.90;92.90;;;;;;5041944;28;20048;-64
2023/03/18 10:56:09;;;;;;;24.27;15.63;;;15.00;93.60;;;;;;5039002;28;20410;-64
2023/03/18 10:58:40;;;;;;;22.85;14.95;;;15.00;90.80;;;;;;5041091;28;20051;-64
2023/03/18 11:01:08;;;;;;;22.23;13.23;;;15.00;90.20;;;;;;5036084;28;20112;-64
2023/03/18 11:03:41;;;;;;;24.15;15.90;;;15.00;87.30;;;;;;5041780;28;20079;-64
2023/03/18 11:06:20;;;;;;;24.17;15.20;;;15.10;87.40;;;;;;5049720;28;20045;-64
2023/03/18 11:08:48;;;;;;;23.83;15.48;;;15.00;86.60;;;;;;5044682;28;20080;-64
2023/03/18 11:11:24;;;;;;;28.60;16.20;;;15.00;88.40;;;;;;5050945;28;20037;-64
2023/03/18 11:13:52;;;;;;;23.67;16.23;;;15.00;88.20;;;;;;5046859;28;20162;-64
2023/03/18 11:16:30;;;;;;;30.63;15.68;;;15.00;88.70;;;;;;5048647;28;20051;-64
2023/03/18 11:18:56;;;;;;;20.98;15.07;;;15.00;89.50;;;;;;5050041;28;20053;-64
2023/03/18 11:21:24;;;;;;;21.65;13.95;;;15.00;86.30;;;;;;5047751;28;20041;-64
2023/03/18 11:24:23;;;;;;;27.38;14.15;;;15.00;85.50;;;;;;5049544;28;20061;-63
2023/03/18 11:26:54;;;;;;;22.38;12.88;;;15.10;87.10;;;;;;5048889;28;20507;-63
2023/03/18 11:29:34;;;;;;;21.98;11.82;;;15.10;83.30;;;;;;5047875;28;20671;-64
2023/03/18 11:32:00;;;;;;;;;;;15.30;85.30;;;;;;5049605;28;20491;-65
2023/03/18 11:34:32;;;;;;;29.73;13.88;;;15.40;84.00;;;;;;5047933;28;20338;-65
2023/03/18 11:37:09;;;;;;;14.45;9.60;;;15.50;85.40;;;;;;5049394;28;20041;-65
2023/03/18 11:39:38;;;;;;;15.50;11.18;;;15.60;80.20;;;;;;5048446;28;20048;-65
2023/03/18 11:42:20;;;;;;;20.10;12.57;;;15.60;76.00;;;;;;5048594;28;20077;-65
2023/03/18 11:44:48;;;;;;;21.73;11.70;;;15.60;76.90;;;;;;5048750;28;20064;-65
2023/03/18 11:47:35;;;;;;;18.23;11.70;;;15.50;76.60;;;;;;5041570;28;20140;-65
2023/03/18 11:50:03;;;;;;;23.35;12.82;;;15.60;79.80;;;;;;5045095;28;20041;-65
2023/03/18 11:52:43;;;;;;;19.63;13.10;;;15.70;79.30;;;;;;5041900;28;20063;-64
2023/03/18 11:55:33;;;;;;;21.95;13.63;;;15.70;78.70;;;;;;5034049;28;20183;-65
2023/03/18 11:58:07;;;;;;;21.85;14.07;;;15.60;78.90;;;;;;5053202;28;20439;-65
2023/03/18 12:00:44;;;;;;;16.75;13.25;;;15.60;79.50;;;;;;5043365;28;20518;-65
2023/03/18 12:03:28;;;;;;;25.67;14.77;;;15.70;80.70;;;;;;5040535;28;20048;-64
2023/03/18 12:06:04;;;;;;;26.05;15.65;;;15.70;82.50;;;;;;5041904;28;20494;-64
2023/03/18 12:09:00;;;;;;;26.92;15.13;;;15.50;81.70;;;;;;5030836;28;20072;-65
2023/03/18 12:11:45;;;;;;;23.20;14.95;;;15.30;80.60;;;;;;5036948;28;20157;-64
2023/03/18 12:14:30;;;;;;;21.88;15.00;;;15.00;80.70;;;;;;5032315;28;20488;-65
2023/03/18 12:17:14;;;;;;;24.63;16.63;;;14.90;82.80;;;;;;5031480;28;20545;-66
2023/03/18 12:20:08;;;;;;;23.90;16.02;;;14.80;84.80;;;;;;5033943;28;20042;-65
2023/03/18 12:22:40;;;;;;;29.08;16.20;;;14.60;87.30;;;;;;5051729;28;20049;-65
2023/03/18 12:25:30;;;;;;;24.65;16.08;;;14.60;90.70;;;;;;5039749;28;20458;-65
2023/03/18 12:28:11;;;;;;;22.73;15.05;;;14.50;91.00;;;;;;5037053;28;20061;-65
2023/03/18 12:30:45;;;;;;;23.17;14.20;;;14.50;91.80;;;;;;5035300;28;20044;-65
2023/03/18 12:33:49;;;;;;;18.95;12.73;;;14.50;91.20;;;;;;5042632;28;20129;-65
2023/03/18 12:36:43;;;;;;;16.45;10.70;;;14.50;91.20;;;;;;5033726;28;20045;-65
2023/03/18 12:39:36;;;;;;;16.92;9.90;;;14.60;88.70;;;;;;5059325;28;20546;-65
2023/03/18 12:42:05;;;;;;;13.88;9.20;;;14.70;84.00;;;;;;5031222;28;20499;-65
2023/03/18 12:44:46;;;;;;;13.30;9.43;;;14.90;80.90;;;;;;5046017;28;20029;-65
2023/03/18 12:47:24;;;;;;;11.90;9.38;;;15.00;77.30;;;;;;5031565;28;20061;-65
2023/03/18 12:49:59;;;;;;;12.07;8.93;;;15.40;78.70;;;;;;5048183;28;20102;-65